createdAt,value
2017-08-21T00:00:59.028Z,72.50
2017-08-21T00:03:33.297Z,72.90
2017-08-21T00:06:07.158Z,73.00
2017-08-21T00:08:49.555Z,73.80
2017-08-21T00:11:24.070Z,74.00
2017-08-21T00:13:57.695Z,73.80
2017-08-21T00:16:31.356Z,73.00
2017-08-21T00:19:06.164Z,73.00
2017-08-21T00:21:39.828Z,72.60
2017-08-21T00:24:14.375Z,72.80
2017-08-21T00:26:48.015Z,72.80
2017-08-21T00:29:21.769Z,72.60
2017-08-21T00:31:56.159Z,72.50
2017-08-21T00:34:29.967Z,73.40
2017-08-21T00:37:03.649Z,72.80
2017-08-21T00:39:37.358Z,72.20
2017-08-21T00:42:10.981Z,72.00
2017-08-21T00:44:44.663Z,71.80
2017-08-21T00:47:18.426Z,71.30
2017-08-21T00:49:52.026Z,71.60
2017-08-21T00:52:25.851Z,71.80
2017-08-21T00:55:00.646Z,72.40
2017-08-21T00:57:35.195Z,72.80
2017-08-21T01:00:09.990Z,72.80
2017-08-21T01:02:43.730Z,72.50
2017-08-21T01:05:17.594Z,71.70
2017-08-21T01:07:52.154Z,72.00
2017-08-21T01:10:26.908Z,72.20
2017-08-21T01:13:00.632Z,72.10
2017-08-21T01:15:34.543Z,72.00
2017-08-21T01:18:08.124Z,72.20
2017-08-21T01:20:42.585Z,71.70
2017-08-21T01:23:16.264Z,71.70
2017-08-21T01:25:50.827Z,71.50
2017-08-21T01:28:24.495Z,71.40
2017-08-21T01:31:00.923Z,71.40
2017-08-21T01:33:34.660Z,71.60
2017-08-21T01:36:08.272Z,71.60
2017-08-21T01:38:41.885Z,71.60
2017-08-21T01:41:15.449Z,71.60
2017-08-21T01:43:50.082Z,71.40
2017-08-21T01:46:23.713Z,71.20
2017-08-21T01:48:57.500Z,71.40
2017-08-21T01:51:31.224Z,71.00
2017-08-21T01:54:06.825Z,71.00
2017-08-21T01:56:40.661Z,70.80
2017-08-21T01:59:15.412Z,71.60
2017-08-21T02:01:49.886Z,71.90
2017-08-21T02:04:23.598Z,71.80
2017-08-21T02:06:57.459Z,71.70
2017-08-21T02:09:31.930Z,71.40
2017-08-21T02:12:07.549Z,71.40
2017-08-21T02:14:41.379Z,71.10
2017-08-21T02:17:15.102Z,71.40
2017-08-21T02:19:48.827Z,71.00
2017-08-21T02:22:23.194Z,71.40
2017-08-21T02:24:57.015Z,71.30
2017-08-21T02:27:31.737Z,72.30
2017-08-21T02:30:06.102Z,71.90
2017-08-21T02:32:39.935Z,71.10
2017-08-21T02:35:13.718Z,71.10
2017-08-21T02:37:48.323Z,71.50
2017-08-21T02:40:22.021Z,71.20
2017-08-21T02:42:55.784Z,71.60
2017-08-21T02:45:30.286Z,72.10
2017-08-21T02:48:04.798Z,71.30
2017-08-21T02:50:38.494Z,71.10
2017-08-21T02:53:13.090Z,71.70
2017-08-21T02:55:46.854Z,71.60
2017-08-21T02:58:21.271Z,71.60
2017-08-21T03:00:55.031Z,72.20
2017-08-21T03:03:28.898Z,72.20
2017-08-21T03:06:02.779Z,72.50
2017-08-21T03:08:36.559Z,72.60
2017-08-21T03:11:10.477Z,72.70
2017-08-21T03:13:44.274Z,72.80
2017-08-21T03:16:20.061Z,73.30
2017-08-21T03:18:53.851Z,73.90
2017-08-21T03:21:27.692Z,73.80
2017-08-21T03:24:01.365Z,73.40
2017-08-21T03:26:34.971Z,73.10
2017-08-21T03:29:09.994Z,73.30
2017-08-21T03:31:44.629Z,73.40
2017-08-21T03:34:18.256Z,73.20
2017-08-21T03:36:51.802Z,73.20
2017-08-21T03:39:25.468Z,73.30
2017-08-21T03:42:00.063Z,73.60
2017-08-21T03:44:33.895Z,73.60
2017-08-21T03:47:07.570Z,74.10
2017-08-21T03:49:41.367Z,74.00
2017-08-21T03:52:15.525Z,73.70
2017-08-21T03:54:49.239Z,73.60
2017-08-21T03:57:22.920Z,73.50
2017-08-21T03:59:56.722Z,74.00
2017-08-21T04:02:31.220Z,74.30
2017-08-21T04:05:05.029Z,74.30
2017-08-21T04:07:38.688Z,74.20
2017-08-21T04:10:13.158Z,74.30
2017-08-21T04:12:46.886Z,74.20
2017-08-21T04:15:20.532Z,74.40
2017-08-21T04:17:54.351Z,74.70
2017-08-21T04:20:28.130Z,74.70
2017-08-21T04:23:02.714Z,74.50
2017-08-21T04:25:37.093Z,74.60
2017-08-21T04:28:11.536Z,74.50
2017-08-21T04:30:45.185Z,74.50
2017-08-21T04:33:19.021Z,74.50
2017-08-21T04:35:53.405Z,74.60
2017-08-21T04:38:27.234Z,74.50
2017-08-21T04:41:02.027Z,74.60
2017-08-21T04:43:35.700Z,75.10
2017-08-21T04:46:09.307Z,75.10
2017-08-21T04:48:42.815Z,75.30
2017-08-21T04:51:16.552Z,75.40
2017-08-21T04:53:51.017Z,75.50
2017-08-21T04:56:24.580Z,76.00
2017-08-21T04:58:58.191Z,76.70
2017-08-21T05:01:31.994Z,76.60
2017-08-21T05:04:06.557Z,76.00
2017-08-21T05:06:40.138Z,76.00
2017-08-21T05:09:14.172Z,77.00
2017-08-21T05:11:47.938Z,78.20
2017-08-21T05:14:22.552Z,77.00
2017-08-21T05:16:56.181Z,77.00
2017-08-21T05:19:29.808Z,77.20
2017-08-21T05:22:03.384Z,77.10
2017-08-21T05:24:37.127Z,77.30
2017-08-21T05:27:10.895Z,77.80
2017-08-21T05:29:44.690Z,77.70
2017-08-21T05:32:18.327Z,77.70
2017-08-21T05:34:51.985Z,77.20
2017-08-21T05:37:26.384Z,77.60
2017-08-21T05:40:00.126Z,77.60
2017-08-21T05:42:34.587Z,77.70
2017-08-21T05:45:08.422Z,77.50
2017-08-21T05:47:42.664Z,77.30
2017-08-21T05:50:16.475Z,78.30
2017-08-21T05:52:50.323Z,78.80
2017-08-21T05:55:25.519Z,79.60
2017-08-21T05:57:59.903Z,79.00
2017-08-21T06:00:33.691Z,78.80
2017-08-21T06:03:07.340Z,79.00
2017-08-21T06:05:41.059Z,79.40
2017-08-21T06:08:14.748Z,80.10
2017-08-21T06:10:48.452Z,80.20
2017-08-21T06:13:22.268Z,79.70
2017-08-21T06:15:56.142Z,79.30
2017-08-21T06:18:29.975Z,79.70
2017-08-21T06:21:04.527Z,81.40
2017-08-21T06:23:38.350Z,81.30
2017-08-21T06:26:12.910Z,81.90
2017-08-21T06:28:46.815Z,81.80
2017-08-21T06:31:20.779Z,82.20
2017-08-21T06:33:54.621Z,82.50
2017-08-21T06:36:28.400Z,81.60
2017-08-21T06:39:02.133Z,81.80
2017-08-21T06:41:36.650Z,83.10
2017-08-21T06:44:11.156Z,82.90
2017-08-21T06:46:44.801Z,82.70
2017-08-21T06:49:18.573Z,81.70
2017-08-21T06:51:53.489Z,81.20
2017-08-21T06:54:28.052Z,81.20
2017-08-21T06:57:01.850Z,81.20
2017-08-21T06:59:35.636Z,80.60
2017-08-21T07:02:10.285Z,80.60
2017-08-21T07:04:44.792Z,81.70
2017-08-21T07:07:20.337Z,81.00
2017-08-21T07:09:54.125Z,82.10
2017-08-21T07:12:27.801Z,81.60
2017-08-21T07:15:02.130Z,80.70
2017-08-21T07:17:35.903Z,77.90
2017-08-21T07:20:10.574Z,75.90
2017-08-21T07:22:44.369Z,76.10
2017-08-21T07:25:18.027Z,76.40
2017-08-21T07:27:52.607Z,77.70
2017-08-21T07:30:26.289Z,76.50
2017-08-21T07:33:01.821Z,75.90
2017-08-21T07:35:37.546Z,74.20
2017-08-21T07:38:11.317Z,74.80
2017-08-21T07:40:45.067Z,75.20
2017-08-21T07:43:18.850Z,74.70
2017-08-21T07:45:52.670Z,74.80
2017-08-21T07:48:26.580Z,74.40
2017-08-21T07:51:01.925Z,75.10
2017-08-21T07:53:35.686Z,74.90
2017-08-21T07:56:09.943Z,74.10
2017-08-21T07:58:43.793Z,72.10
2017-08-21T08:01:18.313Z,71.40
2017-08-21T08:03:52.972Z,71.10
2017-08-21T08:06:26.675Z,71.40
2017-08-21T08:09:01.089Z,70.30
2017-08-21T08:11:35.566Z,72.10
2017-08-21T08:14:10.087Z,70.50
2017-08-21T08:16:44.739Z,69.40
2017-08-21T08:19:18.455Z,68.10
2017-08-21T08:21:54.314Z,70.30
2017-08-21T08:24:28.084Z,70.10
2017-08-21T08:27:03.427Z,68.70
2017-08-21T08:29:39.890Z,68.50
2017-08-21T08:32:15.494Z,68.90
2017-08-21T08:34:52.200Z,72.40
2017-08-21T08:37:25.987Z,71.90
2017-08-21T08:39:59.849Z,69.00
2017-08-21T08:42:33.662Z,64.80
2017-08-21T08:45:07.472Z,64.90
2017-08-21T08:47:44.110Z,65.10
2017-08-21T08:50:18.669Z,69.50
2017-08-21T08:52:53.642Z,69.30
2017-08-21T08:55:28.860Z,66.70
2017-08-21T08:58:02.665Z,66.30
2017-08-21T09:00:37.972Z,65.70
2017-08-21T09:03:11.618Z,65.50
2017-08-21T09:05:45.510Z,63.60
2017-08-21T09:08:19.290Z,66.10
2017-08-21T09:10:53.086Z,66.10
2017-08-21T09:13:26.928Z,60.60
2017-08-21T09:16:00.801Z,62.70
2017-08-21T09:18:34.697Z,62.20
2017-08-21T09:21:11.138Z,63.20
2017-08-21T09:23:45.026Z,64.40
2017-08-21T09:26:19.464Z,65.20
2017-08-21T09:28:55.001Z,66.80
2017-08-21T09:31:29.381Z,66.40
2017-08-21T09:34:04.337Z,66.40
2017-08-21T09:36:38.173Z,66.80
2017-08-21T09:39:11.902Z,66.90
2017-08-21T09:41:45.531Z,66.60
2017-08-21T09:44:20.245Z,66.90
2017-08-21T09:46:53.961Z,67.10
2017-08-21T09:49:27.726Z,66.90
2017-08-21T09:52:01.331Z,67.00
2017-08-21T09:54:35.019Z,67.00
2017-08-21T09:57:09.573Z,66.50
2017-08-21T09:59:43.155Z,66.20
2017-08-21T10:02:16.790Z,65.80
2017-08-21T10:04:51.089Z,65.90
2017-08-21T10:07:25.919Z,65.60
2017-08-21T10:09:59.580Z,65.60
2017-08-21T10:12:33.945Z,64.90
2017-08-21T10:15:08.537Z,64.70
2017-08-21T10:17:42.317Z,64.60
2017-08-21T10:20:15.981Z,64.40
2017-08-21T10:22:49.543Z,64.60
2017-08-21T10:25:24.174Z,64.90
2017-08-21T10:27:57.744Z,65.70
2017-08-21T10:30:31.530Z,65.50
2017-08-21T10:33:05.305Z,65.20
2017-08-21T10:35:39.004Z,64.80
2017-08-21T10:38:13.276Z,64.80
2017-08-21T10:40:46.996Z,65.10
2017-08-21T10:43:20.864Z,65.20
2017-08-21T10:45:54.611Z,64.60
2017-08-21T10:48:28.564Z,64.30
2017-08-21T10:51:02.239Z,63.90
2017-08-21T10:53:35.810Z,64.20
2017-08-21T10:56:09.551Z,64.60
2017-08-21T10:58:44.066Z,64.40
2017-08-21T11:01:18.540Z,64.80
2017-08-21T11:03:52.147Z,64.70
2017-08-21T11:06:25.762Z,64.40
2017-08-21T11:08:59.982Z,63.70
2017-08-21T11:11:33.715Z,63.70
2017-08-21T11:14:07.601Z,64.00
2017-08-21T11:16:42.149Z,63.80
2017-08-21T11:19:16.036Z,63.80
2017-08-21T11:21:51.662Z,62.30
2017-08-21T11:24:25.342Z,61.80
2017-08-21T11:26:59.941Z,62.50
2017-08-21T11:29:33.709Z,62.40
2017-08-21T11:32:07.531Z,62.90
2017-08-21T11:34:43.360Z,62.10
2017-08-21T11:37:18.898Z,61.50
2017-08-21T11:39:53.540Z,61.60
2017-08-21T11:42:27.527Z,61.40
2017-08-21T11:45:01.445Z,61.50
2017-08-21T11:47:35.163Z,60.70
2017-08-21T11:50:08.994Z,60.30
2017-08-21T11:52:42.684Z,60.70
2017-08-21T11:55:16.974Z,60.40
2017-08-21T11:57:50.804Z,60.70
2017-08-21T12:00:24.550Z,60.80
2017-08-21T12:02:59.074Z,60.50
2017-08-21T12:05:33.735Z,59.60
2017-08-21T12:08:07.458Z,59.40
2017-08-21T12:10:42.021Z,58.80
2017-08-21T12:13:15.840Z,58.80
2017-08-21T12:15:52.383Z,58.10
2017-08-21T12:18:26.868Z,58.00
2017-08-21T12:21:01.248Z,59.10
2017-08-21T12:23:35.109Z,59.10
2017-08-21T12:26:09.598Z,59.40
2017-08-21T12:28:43.314Z,59.20
2017-08-21T12:31:17.914Z,59.20
2017-08-21T12:33:52.159Z,59.10
2017-08-21T12:36:26.658Z,59.80
2017-08-21T12:39:00.526Z,59.20
2017-08-21T12:41:34.336Z,59.10
2017-08-21T12:44:09.664Z,58.60
2017-08-21T12:46:43.601Z,58.50
2017-08-21T12:49:17.315Z,58.80
2017-08-21T12:51:50.936Z,59.20
2017-08-21T12:54:24.530Z,58.70
2017-08-21T12:56:58.278Z,58.40
2017-08-21T12:59:31.913Z,58.20
2017-08-21T13:02:05.778Z,58.00
2017-08-21T13:04:40.074Z,57.60
2017-08-21T13:07:13.948Z,57.30
2017-08-21T13:09:47.783Z,57.40
2017-08-21T13:12:22.351Z,57.20
2017-08-21T13:14:56.968Z,57.80
2017-08-21T13:17:30.807Z,57.80
2017-08-21T13:20:04.536Z,57.30
2017-08-21T13:22:38.297Z,56.40
2017-08-21T13:25:13.521Z,56.50
2017-08-21T13:27:47.144Z,56.30
2017-08-21T13:30:20.787Z,56.30
2017-08-21T13:32:54.545Z,56.10
2017-08-21T13:35:29.387Z,55.20
2017-08-21T13:38:04.881Z,56.90
2017-08-21T13:40:38.625Z,56.40
2017-08-21T13:43:12.292Z,57.00
2017-08-21T13:45:46.040Z,56.90
2017-08-21T13:48:19.663Z,55.90
2017-08-21T13:50:54.560Z,55.70
2017-08-21T13:53:29.021Z,55.70
2017-08-21T13:56:02.778Z,55.40
2017-08-21T13:58:37.320Z,56.00
2017-08-21T14:01:11.883Z,56.00
2017-08-21T14:03:46.544Z,56.10
2017-08-21T14:06:21.267Z,56.10
2017-08-21T14:08:55.063Z,55.90
2017-08-21T14:11:29.686Z,55.50
2017-08-21T14:14:03.437Z,55.30
2017-08-21T14:16:37.247Z,55.60
2017-08-21T14:19:10.958Z,55.40
2017-08-21T14:21:44.651Z,55.40
2017-08-21T14:24:19.339Z,55.30
2017-08-21T14:26:53.181Z,55.30
2017-08-21T14:29:27.782Z,55.20
2017-08-21T14:32:01.420Z,55.40
2017-08-21T14:34:36.508Z,55.00
2017-08-21T14:37:10.838Z,55.00
2017-08-21T14:39:44.622Z,53.80
2017-08-21T14:42:18.388Z,54.20
2017-08-21T14:44:52.779Z,55.00
2017-08-21T14:47:26.623Z,55.00
2017-08-21T14:50:00.371Z,55.30
2017-08-21T14:52:34.076Z,55.00
2017-08-21T14:55:07.856Z,54.50
2017-08-21T14:57:41.511Z,55.00
2017-08-21T15:00:16.040Z,54.70
2017-08-21T15:02:49.623Z,53.80
2017-08-21T15:05:23.378Z,54.40
2017-08-21T15:07:57.314Z,54.00
2017-08-21T15:10:30.930Z,54.50
2017-08-21T15:13:05.554Z,54.00
2017-08-21T15:15:39.315Z,53.90
2017-08-21T15:18:13.089Z,54.40
2017-08-21T15:20:46.890Z,53.50
2017-08-21T15:23:20.754Z,53.30
2017-08-21T15:25:55.421Z,53.80
2017-08-21T15:28:29.207Z,53.60
2017-08-21T15:31:02.856Z,53.30
2017-08-21T15:33:37.419Z,53.00
2017-08-21T15:36:11.295Z,53.40
2017-08-21T15:38:44.887Z,52.70
2017-08-21T15:41:18.776Z,53.40
2017-08-21T15:43:52.459Z,53.50
2017-08-21T15:46:26.349Z,53.60
2017-08-21T15:49:00.050Z,53.40
2017-08-21T15:51:33.629Z,53.60
2017-08-21T15:54:08.151Z,53.50
2017-08-21T15:56:42.678Z,53.80
2017-08-21T15:59:16.439Z,53.60
2017-08-21T16:01:50.363Z,52.80
2017-08-21T16:04:24.040Z,52.80
2017-08-21T16:06:57.880Z,52.80
2017-08-21T16:09:31.656Z,53.20
2017-08-21T16:12:06.300Z,53.90
2017-08-21T16:14:39.981Z,53.80
2017-08-21T16:17:13.668Z,54.00
2017-08-21T16:19:48.262Z,53.80
2017-08-21T16:22:22.901Z,54.60
2017-08-21T16:24:56.698Z,53.90
2017-08-21T16:27:30.494Z,54.20
2017-08-21T16:30:04.269Z,53.90
2017-08-21T16:32:38.831Z,53.80
2017-08-21T16:35:12.832Z,53.80
2017-08-21T16:37:47.349Z,53.90
2017-08-21T16:40:21.985Z,53.30
2017-08-21T16:42:55.781Z,53.30
2017-08-21T16:45:30.367Z,54.60
2017-08-21T16:48:05.732Z,54.80
2017-08-21T16:50:39.552Z,54.80
2017-08-21T16:53:14.885Z,54.30
2017-08-21T16:55:48.496Z,54.40
2017-08-21T16:58:22.292Z,54.40
2017-08-21T17:00:56.686Z,55.10
2017-08-21T17:03:30.412Z,55.10
2017-08-21T17:06:04.061Z,55.20
2017-08-21T17:08:37.770Z,54.50
2017-08-21T17:11:11.498Z,54.40
2017-08-21T17:13:45.134Z,54.20
2017-08-21T17:16:18.762Z,53.70
2017-08-21T17:18:54.220Z,54.20
2017-08-21T17:21:28.077Z,54.10
2017-08-21T17:24:02.337Z,54.20
2017-08-21T17:27:07.824Z,53.60
2017-08-21T17:29:41.728Z,53.50
2017-08-21T17:32:15.557Z,54.00
2017-08-21T17:34:52.151Z,53.80
2017-08-21T17:37:25.795Z,54.50
2017-08-21T17:39:59.573Z,53.90
2017-08-21T17:42:33.354Z,54.00
2017-08-21T17:45:07.127Z,54.10
2017-08-21T17:47:40.938Z,54.10
2017-08-21T17:50:15.688Z,54.20
2017-08-21T17:52:50.384Z,54.10
2017-08-21T17:55:25.603Z,54.10
2017-08-21T17:57:59.405Z,54.20
2017-08-21T18:00:33.157Z,54.30
2017-08-21T18:03:08.781Z,54.40
2017-08-21T18:05:42.530Z,54.30
2017-08-21T18:08:17.024Z,54.40
2017-08-21T18:10:51.044Z,54.50
2017-08-21T18:13:24.937Z,54.70
2017-08-21T18:15:58.828Z,54.80
2017-08-21T18:18:32.739Z,54.80
2017-08-21T18:21:08.083Z,54.70
2017-08-21T18:23:44.861Z,55.00
2017-08-21T18:26:23.294Z,55.00
2017-08-21T18:28:58.348Z,54.90
2017-08-21T18:31:33.116Z,55.00
2017-08-21T18:34:07.082Z,54.80
2017-08-21T18:36:42.486Z,55.00
2017-08-21T18:39:16.849Z,55.10
2017-08-21T18:41:50.465Z,55.00
2017-08-21T18:44:27.352Z,55.20
2017-08-21T18:47:00.990Z,55.20
2017-08-21T18:49:34.767Z,55.20
2017-08-21T18:52:08.582Z,55.30
2017-08-21T18:54:43.106Z,55.40
2017-08-21T18:57:16.810Z,55.50
2017-08-21T18:59:53.417Z,55.50
2017-08-21T19:02:27.326Z,55.80
2017-08-21T19:05:01.103Z,55.90
2017-08-21T19:07:34.862Z,55.90
2017-08-21T19:10:08.693Z,56.20
2017-08-21T19:12:42.596Z,56.30
2017-08-21T19:15:17.354Z,56.40
2017-08-21T19:17:51.019Z,56.50
2017-08-21T19:20:25.543Z,56.60
2017-08-21T19:22:59.328Z,56.90
2017-08-21T19:25:33.090Z,57.00
2017-08-21T19:28:09.009Z,57.10
2017-08-21T19:30:42.767Z,57.30
2017-08-21T19:33:16.536Z,57.20
2017-08-21T19:35:50.789Z,57.30
2017-08-21T19:38:24.577Z,57.50
2017-08-21T19:40:58.280Z,57.30
2017-08-21T19:43:32.105Z,57.40
2017-08-21T19:46:05.948Z,57.30
2017-08-21T19:48:39.831Z,57.50
2017-08-21T19:51:13.972Z,57.50
2017-08-21T19:53:47.767Z,57.60
2017-08-21T19:56:21.432Z,57.60
2017-08-21T19:58:55.638Z,57.50
2017-08-21T20:01:29.352Z,57.50
2017-08-21T20:04:03.040Z,57.60
2017-08-21T20:06:37.256Z,57.60
2017-08-21T20:09:12.162Z,57.60
2017-08-21T20:11:46.771Z,58.30
2017-08-21T20:14:21.332Z,57.60
2017-08-21T20:16:55.994Z,57.70
2017-08-21T20:19:29.723Z,57.60
2017-08-21T20:22:10.124Z,57.70
2017-08-21T20:24:43.987Z,57.80
2017-08-21T20:27:17.814Z,57.70
2017-08-21T20:29:51.681Z,58.00
2017-08-21T20:32:25.426Z,58.00
2017-08-21T20:34:59.194Z,58.00
2017-08-21T20:37:32.990Z,58.10
2017-08-21T20:40:06.926Z,58.10
2017-08-21T20:42:40.697Z,58.10
2017-08-21T20:45:14.537Z,58.20
2017-08-21T20:47:48.283Z,58.20
2017-08-21T20:50:23.549Z,58.20
2017-08-21T20:52:58.213Z,58.20
2017-08-21T20:55:31.991Z,58.20
2017-08-21T20:58:05.613Z,58.30
2017-08-21T21:00:39.471Z,58.20
2017-08-21T21:03:13.789Z,58.30
2017-08-21T21:05:47.476Z,58.50
2017-08-21T21:08:21.163Z,58.40
2017-08-21T21:10:54.958Z,58.50
2017-08-21T21:13:28.669Z,58.50
2017-08-21T21:16:02.416Z,58.40
2017-08-21T21:18:36.339Z,58.40
2017-08-21T21:21:10.029Z,58.60
2017-08-21T21:23:43.809Z,58.70
2017-08-21T21:26:19.404Z,58.70
2017-08-21T21:28:53.891Z,58.60
2017-08-21T21:31:27.554Z,58.70
2017-08-21T21:34:01.387Z,58.80
2017-08-21T21:36:35.820Z,58.80
2017-08-21T21:39:11.024Z,58.80
2017-08-21T21:41:44.624Z,59.00
2017-08-21T21:44:19.190Z,58.90
2017-08-21T21:46:52.967Z,58.90
2017-08-21T21:49:26.701Z,59.00
2017-08-21T21:52:00.495Z,59.00
2017-08-21T21:54:34.835Z,59.00
2017-08-21T21:57:08.471Z,59.10
2017-08-21T21:59:42.274Z,59.00
2017-08-21T22:02:17.895Z,59.10
2017-08-21T22:04:51.709Z,59.10
2017-08-21T22:07:25.272Z,59.10
2017-08-21T22:09:59.666Z,59.20
2017-08-21T22:12:33.387Z,59.30
2017-08-21T22:15:07.276Z,59.30
2017-08-21T22:17:40.925Z,59.40
2017-08-21T22:20:16.103Z,59.50
2017-08-21T22:22:49.922Z,59.50
2017-08-21T22:25:25.404Z,59.50
2017-08-21T22:27:58.954Z,59.60
2017-08-21T22:30:32.835Z,60.40
2017-08-21T22:33:06.544Z,59.80
2017-08-21T22:35:40.383Z,59.80
2017-08-21T22:38:14.196Z,59.90
2017-08-21T22:40:48.010Z,60.00
2017-08-21T22:43:21.967Z,60.10
2017-08-21T22:45:56.551Z,59.90
2017-08-21T22:48:30.194Z,60.30
2017-08-21T22:51:04.019Z,60.50
2017-08-21T22:53:37.714Z,60.50
2017-08-21T22:56:12.207Z,60.40
2017-08-21T22:58:46.031Z,60.50
2017-08-21T23:01:37.326Z,60.70
2017-08-21T23:04:11.123Z,60.90
2017-08-21T23:06:44.807Z,60.90
2017-08-21T23:09:19.408Z,60.90
2017-08-21T23:11:54.040Z,61.10
2017-08-21T23:14:29.303Z,61.10
2017-08-21T23:17:02.936Z,61.00
2017-08-21T23:19:36.831Z,61.10
2017-08-21T23:22:10.474Z,60.90
2017-08-21T23:24:44.215Z,61.20
2017-08-21T23:27:19.724Z,61.20
2017-08-21T23:29:53.304Z,61.30
2017-08-21T23:32:27.218Z,61.30
2017-08-21T23:35:01.967Z,61.30
2017-08-21T23:37:36.630Z,61.60
2017-08-21T23:40:10.565Z,61.70
2017-08-21T23:42:45.254Z,61.90
2017-08-21T23:45:19.717Z,61.90
2017-08-21T23:47:53.395Z,62.00
2017-08-21T23:50:27.097Z,62.00
2017-08-21T23:53:01.002Z,62.20
2017-08-21T23:55:34.693Z,62.30
2017-08-21T23:58:08.342Z,62.30
